Time;durP1;ratioP1;P1;durP2;ratioP2;P2;SDS_P1;SDS_P2;PMS_P1;PMS_P2;Temp;Humidity;BMP_temperature;BMP_pressure;BME280_temperature;BME280_humidity;BME280_pressure;Samples;Min_cycle;Max_cycle;Signal;HPM_P1;HPM_P2
2022/07/13 19:57:38;;;;;;;6.03;3.62;;;;;;;22.12;47.04;100164.62;2296334;76;22934;-73
2022/07/13 20:00:40;;;;;;;4.72;3.67;;;;;;;22.03;47.45;100160.14;2263090;77;21034;-75
2022/07/13 20:03:53;;;;;;;5.92;3.62;;;;;;;22.00;48.16;100159.27;2262475;77;21074;-74
2022/07/13 20:06:56;;;;;;;11.08;4.25;;;;;;;21.97;48.78;100167.05;2261375;77;21061;-75
2022/07/13 20:09:57;;;;;;;7.97;4.53;;;;;;;21.91;49.30;100167.48;2261765;77;21035;-75
2022/07/13 20:12:58;;;;;;;7.03;4.28;;;;;;;21.85;49.67;100166.55;2261600;77;20998;-75
2022/07/13 20:15:59;;;;;;;8.78;4.35;;;;;;;21.79;49.81;100165.33;2257068;77;21041;-75
2022/07/13 20:19:00;;;;;;;14.03;5.72;;;;;;;21.74;50.02;100157.11;2261450;77;21039;-75
2022/07/13 20:22:06;;;;;;;17.57;4.65;;;;;;;21.67;50.69;100162.66;2260491;77;21719;-75
2022/07/13 20:25:06;;;;;;;5.78;3.70;;;;;;;21.52;50.85;100159.13;2259122;77;21015;-75
2022/07/13 20:28:10;;;;;;;6.78;2.92;;;;;;;21.44;50.76;100157.60;2259036;77;21043;-75
2022/07/13 20:31:11;;;;;;;7.55;3.65;;;;;;;21.40;50.89;100161.84;2258401;77;21017;-75
2022/07/13 20:34:14;;;;;;;5.78;3.33;;;;;;;21.34;51.30;100164.08;2260312;77;21023;-75
2022/07/13 20:37:15;;;;;;;10.65;3.35;;;;;;;21.22;51.37;100165.45;2259310;77;21469;-75
2022/07/13 20:40:18;;;;;;;4.87;2.92;;;;;;;21.09;51.88;100164.36;2252128;77;21065;-75
2022/07/13 20:43:19;;;;;;;3.92;3.02;;;;;;;20.88;52.06;100160.35;2250443;77;21007;-75
2022/07/13 20:46:21;;;;;;;5.87;2.98;;;;;;;20.75;52.50;100156.52;2262559;77;21029;-75
2022/07/13 20:49:22;;;;;;;7.72;3.08;;;;;;;20.69;52.80;100152.06;2219076;77;21451;-75
2022/07/13 20:52:23;;;;;;;7.00;3.22;;;;;;;20.64;52.90;100154.12;2256051;77;21282;-74
2022/07/13 20:55:25;;;;;;;11.60;4.03;;;;;;;20.52;53.07;100147.84;2254022;77;21563;-75
2022/07/13 20:58:26;;;;;;;8.58;3.52;;;;;;;20.43;53.50;100141.97;2254629;77;21579;-74
2022/07/13 21:01:30;;;;;;;7.97;3.12;;;;;;;20.34;53.69;100146.87;2259159;77;21481;-74
2022/07/13 21:04:31;;;;;;;6.42;2.42;;;;;;;20.29;53.68;100149.95;2229991;77;21041;-75
2022/07/13 21:07:32;;;;;;;3.75;2.62;;;;;;;20.24;53.63;100153.86;2225536;78;20939;-74
2022/07/13 21:10:33;;;;;;;9.35;3.55;;;;;;;20.12;53.79;100153.83;2255769;78;20951;-75
2022/07/13 21:13:34;;;;;;;5.92;2.75;;;;;;;20.04;54.16;100148.22;2261346;78;20968;-74
2022/07/13 21:16:36;;;;;;;6.33;2.50;;;;;;;19.88;54.43;100145.66;2260791;78;20947;-74
2022/07/13 21:19:38;;;;;;;2.85;2.30;;;;;;;19.78;54.80;100147.23;2249340;78;21002;-74
2022/07/13 21:22:41;;;;;;;2.47;2.25;;;;;;;19.66;54.93;100146.66;2258632;78;21556;-74
2022/07/13 21:26:02;;;;;;;2.72;2.12;;;;;;;19.61;55.20;100135.70;2262777;78;21999;-75
2022/07/13 21:29:04;;;;;;;3.67;2.22;;;;;;;19.57;55.42;100139.91;2263367;77;22459;-75
2022/07/13 21:32:06;;;;;;;3.08;2.20;;;;;;;19.51;55.46;100134.05;2261578;78;20961;-74
2022/07/13 21:35:08;;;;;;;3.52;2.47;;;;;;;19.48;55.44;100134.50;2259728;78;21041;-75
2022/07/13 21:38:10;;;;;;;7.28;2.37;;;;;;;19.39;55.39;100134.52;2260346;78;21001;-74
2022/07/13 21:41:13;;;;;;;4.87;2.83;;;;;;;19.37;55.77;100129.88;2263602;78;21466;-75
2022/07/13 21:44:14;;;;;;;5.78;2.62;;;;;;;19.35;56.70;100131.45;2260944;78;21030;-74
2022/07/13 21:47:15;;;;;;;5.22;2.95;;;;;;;19.36;56.60;100125.55;2262449;77;21064;-75
2022/07/13 21:50:17;;;;;;;8.55;3.98;;;;;;;19.33;56.99;100134.07;2265042;78;21006;-75
2022/07/13 21:53:18;;;;;;;12.65;4.85;;;;;;;19.29;57.32;100136.39;2264108;77;20959;-75
2022/07/13 21:56:20;;;;;;;7.75;3.98;;;;;;;19.25;57.65;100137.34;2258327;78;21030;-75
2022/07/13 21:59:23;;;;;;;9.05;4.50;;;;;;;19.24;57.89;100138.40;2260514;78;21023;-75
2022/07/13 22:02:27;;;;;;;4.53;3.50;;;;;;;19.25;58.41;100131.14;2257028;78;21039;-75
2022/07/13 22:05:39;;;;;;;9.48;3.85;;;;;;;19.25;58.73;100132.48;2256432;78;21524;-75
2022/07/13 22:08:40;;;;;;;4.08;2.95;;;;;;;19.26;59.26;100124.21;2257417;78;21073;-76
2022/07/13 22:12:40;;;;;;;2.60;2.30;;;;;;;19.24;59.11;100125.48;2265385;78;20966;-75
2022/07/13 22:16:40;;;;;;;3.98;2.08;;;;;;;19.22;59.06;100124.34;2267021;78;21098;-75
2022/07/13 22:20:36;;;;;;;2.95;2.58;;;;;;;19.25;59.26;100118.52;2259811;78;20997;-73
2022/07/13 22:24:35;;;;;;;3.83;2.60;;;;;;;19.28;59.55;100115.08;2256296;78;21081;-74
2022/07/13 22:28:32;;;;;;;5.45;2.52;;;;;;;19.28;60.06;100109.17;2270504;78;20963;-74
2022/07/13 22:32:30;;;;;;;2.85;1.85;;;;;;;19.24;59.90;100112.84;2265833;78;21005;-72
2022/07/13 22:36:27;;;;;;;2.92;2.10;;;;;;;19.25;59.86;100106.41;2263595;78;20981;-72
2022/07/13 22:40:24;;;;;;;2.60;2.20;;;;;;;19.26;60.55;100097.84;2258918;78;21006;-74
2022/07/13 22:44:22;;;;;;;4.72;2.20;;;;;;;19.28;60.64;100096.25;2267015;78;21569;-72
2022/07/13 22:48:21;;;;;;;2.62;2.20;;;;;;;19.25;60.54;100091.61;2260707;78;21009;-73
2022/07/13 22:52:20;;;;;;;6.83;2.37;;;;;;;19.29;60.20;100080.40;2261703;78;21015;-73
2022/07/13 22:56:17;;;;;;;6.22;2.20;;;;;;;19.24;59.86;100088.64;2261763;78;21033;-74
2022/07/13 23:00:14;;;;;;;4.97;3.08;;;;;;;19.25;60.17;100080.04;2262641;78;21126;-75
2022/07/13 23:04:12;;;;;;;3.65;2.35;;;;;;;19.25;60.45;100081.38;2264381;78;21036;-73
2022/07/13 23:08:09;;;;;;;2.98;2.27;;;;;;;19.26;60.44;100083.86;2266432;78;21020;-73
2022/07/13 23:12:09;;;;;;;3.08;2.27;;;;;;;19.29;60.92;100084.44;2264561;78;21487;-73
2022/07/13 23:16:05;;;;;;;3.30;3.00;;;;;;;19.31;60.60;100076.44;2258948;78;20999;-73
2022/07/13 23:20:03;;;;;;;5.47;2.62;;;;;;;19.38;60.76;100078.55;2262719;78;21070;-73
2022/07/13 23:24:00;;;;;;;5.80;2.45;;;;;;;19.44;60.92;100081.67;2256055;78;20964;-73
2022/07/13 23:27:58;;;;;;;4.35;2.70;;;;;;;19.46;60.85;100081.46;2256276;78;20989;-73
2022/07/13 23:31:20;;;;;;;8.33;2.83;;;;;;;19.45;60.67;100077.92;2263654;78;20984;-74
2022/07/13 23:34:22;;;;;;;5.67;2.52;;;;;;;19.43;60.22;100076.53;2260983;78;21058;-74
2022/07/13 23:37:25;;;;;;;5.28;2.65;;;;;;;19.44;60.20;100080.33;2231485;78;21077;-74
2022/07/13 23:40:26;;;;;;;3.10;2.80;;;;;;;19.44;59.91;100082.20;2257360;77;21584;-76
2022/07/13 23:43:28;;;;;;;4.95;2.47;;;;;;;19.44;59.60;100078.17;2263121;78;21017;-73
2022/07/13 23:46:29;;;;;;;3.45;2.70;;;;;;;19.45;59.57;100079.80;2253852;78;20935;-73
2022/07/13 23:49:30;;;;;;;5.00;2.80;;;;;;;19.47;59.30;100075.02;2259634;78;21029;-74
2022/07/13 23:52:33;;;;;;;3.42;2.70;;;;;;;19.44;59.74;100074.95;2257867;78;20991;-74
2022/07/13 23:55:37;;;;;;;3.08;2.77;;;;;;;19.41;59.57;100066.52;2261397;78;21449;-74
2022/07/13 23:58:38;;;;;;;3.05;2.30;;;;;;;19.38;60.08;100070.48;2258338;78;21007;-73
